Time;durP1;ratioP1;P1;durP2;ratioP2;P2;SDS_P1;SDS_P2;PMS_P1;PMS_P2;Temp;Humidity;BMP_temperature;BMP_pressure;BME280_temperature;BME280_humidity;BME280_pressure;Samples;Min_cycle;Max_cycle;Signal;HPM_P1;HPM_P2
2021/08/05 00:00:55;;;;;;;4.32;3.92;;;17.60;99.90;;;;;;4955750;29;20028;-73
2021/08/05 00:03:21;;;;;;;3.92;3.55;;;17.60;99.90;;;;;;4956938;29;20106;-73
2021/08/05 00:05:46;;;;;;;4.47;3.80;;;17.60;99.90;;;;;;4955844;29;20502;-73
2021/08/05 00:08:12;;;;;;;5.10;4.57;;;17.50;99.90;;;;;;4953863;29;20179;-76
2021/08/05 00:10:37;;;;;;;6.03;4.32;;;17.60;99.90;;;;;;4955604;29;20027;-76
2021/08/05 00:13:03;;;;;;;4.72;4.25;;;17.50;99.90;;;;;;4954953;29;20480;-74
2021/08/05 00:15:28;;;;;;;4.43;4.05;;;17.50;99.90;;;;;;4955859;29;20034;-73
2021/08/05 00:17:54;;;;;;;6.90;4.93;;;17.50;99.90;;;;;;4956569;29;20488;-73
2021/08/05 00:20:20;;;;;;;6.15;4.60;;;17.50;99.90;;;;;;4955452;29;20066;-73
2021/08/05 00:22:45;;;;;;;5.35;4.78;;;17.50;99.90;;;;;;4955744;29;20472;-78
2021/08/05 00:25:11;;;;;;;6.50;4.57;;;17.50;99.90;;;;;;4954289;28;20120;-73
2021/08/05 00:27:37;;;;;;;5.15;4.55;;;17.50;99.90;;;;;;4956179;29;20042;-73
2021/08/05 00:30:03;;;;;;;5.07;4.57;;;17.50;99.90;;;;;;4955579;29;20043;-73
2021/08/05 00:32:29;;;;;;;5.57;4.70;;;17.50;99.90;;;;;;4954668;29;20028;-73
2021/08/05 00:34:55;;;;;;;5.10;4.47;;;17.50;99.90;;;;;;4938761;29;20372;-74
2021/08/05 00:37:20;;;;;;;5.03;4.53;;;17.50;99.90;;;;;;4954934;29;20468;-74
2021/08/05 00:39:46;;;;;;;5.50;4.90;;;17.50;99.90;;;;;;4954773;29;20031;-73
2021/08/05 00:42:12;;;;;;;5.68;4.35;;;17.40;99.90;;;;;;4955353;29;20028;-73
2021/08/05 00:44:38;;;;;;;6.53;4.50;;;17.40;99.90;;;;;;4955472;28;20015;-73
2021/08/05 00:47:05;;;;;;;6.30;4.90;;;17.30;99.90;;;;;;4954524;29;20031;-74
2021/08/05 00:49:31;;;;;;;5.30;4.80;;;17.30;99.90;;;;;;4956134;28;20571;-73
2021/08/05 00:51:57;;;;;;;5.32;4.82;;;17.20;99.90;;;;;;4958123;29;20070;-73
2021/08/05 00:54:22;;;;;;;4.78;4.38;;;17.20;99.90;;;;;;4958350;29;20027;-73
2021/08/05 00:56:48;;;;;;;5.35;4.85;;;17.10;99.90;;;;;;4949382;29;20037;-72
2021/08/05 00:59:14;;;;;;;4.90;4.40;;;17.10;99.90;;;;;;4972544;28;20027;-72
2021/08/05 01:01:44;;;;;;;4.50;4.10;;;17.00;99.90;;;;;;4976562;28;20435;-73
2021/08/05 01:04:10;;;;;;;5.75;4.70;;;17.00;99.90;;;;;;4958459;29;20031;-72
2021/08/05 01:07:01;;;;;;;7.90;5.47;;;16.90;99.90;;;;;;4961403;28;20425;-72
2021/08/05 01:09:46;;;;;;;5.17;4.67;;;16.90;99.90;;;;;;4940210;29;20492;-72
2021/08/05 01:12:36;;;;;;;7.43;5.30;;;16.80;99.90;;;;;;4941259;29;20027;-71
2021/08/05 01:15:09;;;;;;;6.78;5.55;;;16.70;99.90;;;;;;4958474;29;20447;-72
2021/08/05 01:17:44;;;;;;;6.00;5.40;;;16.70;99.90;;;;;;4940306;29;20051;-77
2021/08/05 01:20:15;;;;;;;5.57;5.05;;;16.60;99.90;;;;;;4958502;29;20106;-72
2021/08/05 01:22:44;;;;;;;7.37;5.83;;;16.60;99.90;;;;;;4957893;29;20023;-75
2021/08/05 01:25:18;;;;;;;6.28;5.68;;;16.50;99.90;;;;;;4958343;29;20310;-72
2021/08/05 01:27:44;;;;;;;6.07;5.45;;;16.40;99.90;;;;;;4940927;29;20023;-72
2021/08/05 01:30:11;;;;;;;6.93;6.00;;;16.40;99.90;;;;;;4940288;29;20043;-72
2021/08/05 01:32:39;;;;;;;7.93;6.25;;;16.30;99.90;;;;;;4958268;29;20030;-72
2021/08/05 01:35:05;;;;;;;7.00;6.13;;;16.30;99.90;;;;;;4958229;29;20483;-72
2021/08/05 01:37:31;;;;;;;11.25;6.05;;;16.20;99.90;;;;;;4957153;29;20454;-72
2021/08/05 01:39:58;;;;;;;7.18;6.50;;;16.20;99.90;;;;;;4958170;29;20425;-72
2021/08/05 01:42:24;;;;;;;7.72;6.88;;;16.10;99.90;;;;;;4940748;29;20026;-72
2021/08/05 01:44:52;;;;;;;10.25;6.93;;;16.10;99.90;;;;;;4957458;29;20110;-72
2021/08/05 01:47:19;;;;;;;7.68;6.85;;;16.10;99.90;;;;;;4958226;29;20033;-72
2021/08/05 01:49:45;;;;;;;8.80;6.68;;;16.10;99.90;;;;;;4957385;29;20034;-76
2021/08/05 01:52:12;;;;;;;10.60;6.95;;;16.00;99.90;;;;;;4957983;29;20031;-72
2021/08/05 01:54:38;;;;;;;8.05;7.32;;;16.00;99.90;;;;;;4957976;29;20094;-76
2021/08/05 01:57:04;;;;;;;8.30;7.50;;;15.90;99.90;;;;;;4939862;29;20162;-73
2021/08/05 01:59:31;;;;;;;10.77;7.90;;;15.90;99.90;;;;;;4957432;28;20824;-72
2021/08/05 02:01:56;;;;;;;8.68;7.88;;;15.90;99.90;;;;;;4956464;29;20047;-78
2021/08/05 02:04:57;;;;;;;8.70;7.75;;;15.90;99.90;;;;;;4957001;29;20039;-73
2021/08/05 02:07:29;;;;;;;10.68;8.52;;;15.90;99.90;;;;;;4957577;29;20031;-73
2021/08/05 02:10:03;;;;;;;9.13;8.27;;;15.90;99.90;;;;;;4940332;29;20042;-79
2021/08/05 02:12:33;;;;;;;10.88;8.65;;;15.90;99.90;;;;;;4956689;29;20031;-72
2021/08/05 02:15:02;;;;;;;9.00;8.20;;;16.00;99.90;;;;;;4940400;29;20118;-73
2021/08/05 02:17:32;;;;;;;10.07;9.07;;;15.90;99.90;;;;;;4939932;29;20472;-73
2021/08/05 02:19:57;;;;;;;9.02;8.13;;;15.90;99.90;;;;;;4939166;29;20151;-74
2021/08/05 02:22:23;;;;;;;10.25;8.63;;;15.90;99.90;;;;;;4957074;29;20110;-73
2021/08/05 02:24:50;;;;;;;10.00;9.02;;;15.90;99.90;;;;;;4956780;29;20041;-73
2021/08/05 02:27:16;;;;;;;9.15;8.32;;;15.90;99.90;;;;;;4939813;29;20016;-72
2021/08/05 02:29:42;;;;;;;8.73;7.93;;;15.90;99.90;;;;;;4939893;29;20042;-72
2021/08/05 02:32:08;;;;;;;10.27;8.35;;;15.90;99.90;;;;;;4956808;29;20070;-74
2021/08/05 02:34:36;;;;;;;8.70;8.00;;;15.90;99.90;;;;;;4956992;29;20036;-73
2021/08/05 02:37:02;;;;;;;9.35;8.52;;;15.90;99.90;;;;;;4939943;29;20082;-73
2021/08/05 02:39:27;;;;;;;10.40;9.30;;;15.90;99.90;;;;;;4938939;29;20031;-73
2021/08/05 02:41:53;;;;;;;9.00;8.10;;;16.00;99.90;;;;;;4957267;29;20106;-74
2021/08/05 02:44:20;;;;;;;9.13;8.05;;;16.00;99.90;;;;;;4956726;29;20027;-73
2021/08/05 02:46:47;;;;;;;9.13;8.25;;;16.00;99.90;;;;;;4956538;29;20023;-73
2021/08/05 02:49:15;;;;;;;8.57;7.78;;;16.00;99.90;;;;;;4956387;29;20035;-73
2021/08/05 02:51:41;;;;;;;9.85;8.95;;;16.00;99.90;;;;;;4956929;29;20023;-74
2021/08/05 02:54:07;;;;;;;9.75;8.88;;;16.00;99.90;;;;;;4956388;29;20051;-77
2021/08/05 02:56:33;;;;;;;9.02;8.23;;;16.00;99.90;;;;;;4956339;29;20055;-73
2021/08/05 02:59:00;;;;;;;9.15;8.27;;;16.10;99.90;;;;;;4956745;29;20042;-73
2021/08/05 03:01:25;;;;;;;9.63;8.73;;;16.10;99.90;;;;;;4938334;29;20504;-75
2021/08/05 03:03:52;;;;;;;7.80;7.00;;;16.10;99.90;;;;;;4939578;29;20030;-73
2021/08/05 03:06:24;;;;;;;9.55;8.00;;;16.10;99.90;;;;;;4956664;29;20019;-74
2021/08/05 03:08:50;;;;;;;8.52;7.25;;;16.10;99.90;;;;;;4938696;29;20028;-72
2021/08/05 03:11:16;;;;;;;8.15;7.45;;;16.10;99.90;;;;;;4955834;28;20034;-72
2021/08/05 03:13:41;;;;;;;8.65;7.35;;;16.10;99.90;;;;;;4939214;29;20019;-73
2021/08/05 03:16:07;;;;;;;7.88;7.18;;;16.10;99.90;;;;;;4955967;29;20031;-72
2021/08/05 03:18:32;;;;;;;7.47;6.78;;;16.20;99.90;;;;;;4938723;29;20546;-73
2021/08/05 03:20:58;;;;;;;7.07;6.38;;;16.20;99.90;;;;;;4956094;29;20104;-73
2021/08/05 03:23:23;;;;;;;7.38;6.70;;;16.20;99.90;;;;;;4955889;29;20086;-73
2021/08/05 03:25:49;;;;;;;7.63;6.93;;;16.20;99.90;;;;;;4956493;29;20110;-72
2021/08/05 03:28:14;;;;;;;8.18;6.10;;;16.20;99.90;;;;;;4954801;29;20038;-72
2021/08/05 03:30:40;;;;;;;7.40;6.50;;;16.20;99.90;;;;;;4956380;29;20028;-72
2021/08/05 03:33:06;;;;;;;9.57;6.55;;;16.20;99.90;;;;;;4956251;29;20023;-72
2021/08/05 03:35:31;;;;;;;8.52;7.05;;;16.20;99.90;;;;;;4955223;29;20027;-72
2021/08/05 03:37:57;;;;;;;8.40;6.43;;;16.20;99.90;;;;;;4956077;29;20059;-74
2021/08/05 03:40:22;;;;;;;7.07;6.15;;;16.20;99.90;;;;;;4955622;29;20472;-73
2021/08/05 03:42:48;;;;;;;6.35;5.63;;;16.20;99.90;;;;;;4955230;29;20027;-73
2021/08/05 03:45:13;;;;;;;7.22;6.53;;;16.10;99.90;;;;;;4955819;29;20027;-73
2021/08/05 03:47:39;;;;;;;7.70;6.05;;;16.20;99.90;;;;;;4955861;29;20031;-73
2021/08/05 03:50:06;;;;;;;7.93;6.45;;;16.10;99.90;;;;;;4955526;29;20113;-73
2021/08/05 03:52:32;;;;;;;9.73;6.85;;;16.10;99.90;;;;;;4955596;29;20491;-73
2021/08/05 03:54:57;;;;;;;7.32;6.65;;;16.10;99.90;;;;;;4955726;29;20027;-74
2021/08/05 03:57:23;;;;;;;7.88;6.85;;;16.10;99.90;;;;;;4954502;29;20042;-74
2021/08/05 03:59:48;;;;;;;7.22;6.50;;;16.10;99.90;;;;;;4938373;29;20047;-73
2021/08/05 04:02:14;;;;;;;7.38;6.68;;;16.10;99.90;;;;;;4938229;29;20384;-74
2021/08/05 04:04:41;;;;;;;9.57;7.47;;;16.00;99.90;;;;;;4955022;29;20483;-72
2021/08/05 04:07:07;;;;;;;8.00;7.20;;;16.00;99.90;;;;;;4955633;29;20471;-73
2021/08/05 04:09:32;;;;;;;8.93;7.25;;;16.00;99.90;;;;;;4955235;29;20067;-73
2021/08/05 04:11:58;;;;;;;8.32;7.53;;;16.00;99.90;;;;;;4937684;29;20016;-73
2021/08/05 04:14:23;;;;;;;7.75;6.85;;;16.00;99.90;;;;;;4937977;29;20034;-76
2021/08/05 04:16:49;;;;;;;8.48;7.50;;;16.00;99.90;;;;;;4955620;29;20023;-74
2021/08/05 04:19:15;;;;;;;7.75;6.85;;;16.00;99.90;;;;;;4954620;29;20030;-73
2021/08/05 04:21:40;;;;;;;7.60;6.90;;;16.00;99.90;;;;;;4955491;29;20027;-73
2021/08/05 04:24:06;;;;;;;7.95;7.10;;;16.10;99.90;;;;;;4954690;28;20023;-77
2021/08/05 04:26:32;;;;;;;9.80;7.15;;;16.00;99.90;;;;;;4954468;29;20019;-73
2021/08/05 04:28:57;;;;;;;8.27;7.47;;;16.10;99.90;;;;;;4954972;29;20058;-73
2021/08/05 04:31:23;;;;;;;9.30;7.28;;;16.10;99.90;;;;;;4954266;29;20027;-76
2021/08/05 04:33:48;;;;;;;7.65;6.93;;;16.10;99.90;;;;;;4937728;28;20042;-75
2021/08/05 04:36:14;;;;;;;7.80;7.00;;;16.00;99.90;;;;;;4954592;28;20027;-73
2021/08/05 04:38:39;;;;;;;8.35;7.45;;;16.10;99.90;;;;;;4947307;29;20099;-73
2021/08/05 04:41:05;;;;;;;8.43;7.43;;;16.10;99.90;;;;;;4954073;29;20027;-73
2021/08/05 04:43:30;;;;;;;8.02;7.20;;;16.10;99.90;;;;;;4954067;29;20039;-73
2021/08/05 04:45:56;;;;;;;7.72;7.03;;;16.20;99.90;;;;;;4955166;28;20038;-74
2021/08/05 04:48:22;;;;;;;7.40;6.80;;;16.20;99.90;;;;;;4974300;28;20034;-73
2021/08/05 04:50:47;;;;;;;7.65;6.95;;;16.30;99.90;;;;;;4949397;29;20034;-73
2021/08/05 04:53:16;;;;;;;8.30;7.50;;;16.30;99.90;;;;;;4935326;29;20028;-73
2021/08/05 04:55:43;;;;;;;8.73;7.30;;;16.30;99.90;;;;;;4935945;29;20054;-73
2021/08/05 04:58:09;;;;;;;8.52;7.72;;;16.40;99.90;;;;;;4953641;29;20483;-76
2021/08/05 05:00:41;;;;;;;8.45;7.65;;;16.40;99.90;;;;;;4936401;29;20455;-74
2021/08/05 05:03:08;;;;;;;8.05;7.18;;;16.40;99.90;;;;;;4954362;29;20032;-72
2021/08/05 05:05:34;;;;;;;8.35;7.55;;;16.40;99.90;;;;;;4947676;28;20455;-76
2021/08/05 05:08:20;;;;;;;7.72;7.03;;;16.50;99.90;;;;;;4961062;28;20028;-73
2021/08/05 05:10:47;;;;;;;9.88;8.98;;;16.50;99.90;;;;;;4957105;28;20027;-72
2021/08/05 05:13:14;;;;;;;9.50;8.63;;;16.50;99.90;;;;;;4940147;28;20392;-80
2021/08/05 05:15:40;;;;;;;10.60;9.60;;;16.50;99.90;;;;;;4973747;28;20073;-72
2021/08/05 05:18:06;;;;;;;8.80;7.93;;;16.50;99.90;;;;;;4948343;29;20395;-71
2021/08/05 05:20:33;;;;;;;8.63;7.93;;;16.50;99.90;;;;;;4936927;29;20110;-71
2021/08/05 05:22:59;;;;;;;8.45;7.63;;;16.60;99.90;;;;;;4954663;29;20054;-73
2021/08/05 05:25:25;;;;;;;9.23;8.40;;;16.60;99.90;;;;;;4954527;29;20510;-72
2021/08/05 05:27:51;;;;;;;9.02;8.23;;;16.70;99.90;;;;;;4953503;29;20492;-77
2021/08/05 05:30:17;;;;;;;8.60;7.80;;;16.80;99.90;;;;;;4932005;29;20062;-74
2021/08/05 05:32:43;;;;;;;8.52;7.63;;;16.80;99.90;;;;;;4936360;29;20086;-74
2021/08/05 05:35:10;;;;;;;8.93;7.95;;;16.90;99.90;;;;;;4938092;29;20491;-73
2021/08/05 05:37:36;;;;;;;11.43;9.38;;;16.90;99.90;;;;;;4957918;29;20110;-76
2021/08/05 05:40:04;;;;;;;8.73;7.93;;;17.00;99.90;;;;;;4957786;29;20031;-73
2021/08/05 05:42:30;;;;;;;10.45;9.45;;;17.00;99.90;;;;;;4939548;29;20027;-75
2021/08/05 05:44:56;;;;;;;11.15;9.63;;;17.10;99.90;;;;;;4957566;29;20027;-76
2021/08/05 05:47:22;;;;;;;10.45;9.50;;;17.10;99.90;;;;;;4957040;29;20023;-75
2021/08/05 05:49:48;;;;;;;11.52;10.35;;;17.10;99.90;;;;;;4938772;29;20480;-79
2021/08/05 05:52:15;;;;;;;11.10;9.82;;;17.20;99.90;;;;;;4940460;29;20024;-82
2021/08/05 05:54:42;;;;;;;10.82;9.70;;;17.20;99.90;;;;;;4958221;29;20027;-83
2021/08/05 05:57:07;;;;;;;10.23;9.32;;;17.30;99.90;;;;;;4939915;29;20031;-81
2021/08/05 05:59:33;;;;;;;10.68;9.57;;;17.30;99.90;;;;;;4956755;29;20042;-81
2021/08/05 06:01:58;;;;;;;10.90;9.80;;;17.40;99.90;;;;;;4940355;29;20535;-79
2021/08/05 06:04:24;;;;;;;10.32;9.23;;;17.50;99.90;;;;;;4939682;29;20031;-72
2021/08/05 06:06:50;;;;;;;10.15;9.15;;;17.60;99.90;;;;;;4940410;29;20480;-82
2021/08/05 06:09:15;;;;;;;11.88;9.27;;;17.60;99.90;;;;;;4957779;29;20441;-75
2021/08/05 06:11:41;;;;;;;9.90;9.00;;;17.60;99.90;;;;;;4956045;29;20024;-80
2021/08/05 06:14:06;;;;;;;11.30;10.10;;;17.70;99.90;;;;;;4939706;29;20028;-76
2021/08/05 06:16:32;;;;;;;9.98;9.07;;;17.70;99.90;;;;;;4957038;29;20031;-78
2021/08/05 06:18:57;;;;;;;10.07;9.15;;;17.70;99.90;;;;;;4937381;29;20027;-74
2021/08/05 06:21:23;;;;;;;12.25;10.40;;;17.70;99.90;;;;;;4955895;29;20034;-79
2021/08/05 06:23:49;;;;;;;11.10;9.95;;;17.70;99.90;;;;;;4956566;29;20030;-74
2021/08/05 06:26:14;;;;;;;11.50;9.82;;;17.80;99.90;;;;;;4956545;29;20487;-76
2021/08/05 06:28:40;;;;;;;10.38;9.35;;;17.80;99.90;;;;;;4940914;29;20110;-74
2021/08/05 06:31:05;;;;;;;10.93;9.25;;;17.80;99.90;;;;;;4938965;29;20035;-79
2021/08/05 06:33:32;;;;;;;11.15;10.15;;;17.90;99.90;;;;;;4958508;29;20460;-76
2021/08/05 06:35:58;;;;;;;11.35;10.35;;;17.90;99.90;;;;;;4940366;29;20093;-83
2021/08/05 06:38:24;;;;;;;11.38;10.30;;;17.90;99.90;;;;;;4955425;28;20074;-76
2021/08/05 06:40:49;;;;;;;11.98;10.80;;;17.90;99.90;;;;;;4957370;29;20134;-83
2021/08/05 06:43:15;;;;;;;11.43;10.32;;;18.00;99.90;;;;;;4939707;29;20027;-81
2021/08/05 06:45:41;;;;;;;10.45;9.55;;;18.10;99.90;;;;;;4956874;29;20027;-74
2021/08/05 06:48:06;;;;;;;11.98;10.77;;;18.20;99.90;;;;;;4956590;28;20027;-77
2021/08/05 06:50:32;;;;;;;11.38;10.27;;;18.30;99.90;;;;;;4955730;28;20035;-74
2021/08/05 06:52:57;;;;;;;11.77;10.68;;;18.30;99.90;;;;;;4955824;29;20107;-74
2021/08/05 06:55:23;;;;;;;16.83;11.00;;;18.30;99.90;;;;;;4955646;29;20110;-85
2021/08/05 06:57:48;;;;;;;14.13;10.95;;;18.40;99.90;;;;;;4957053;29;20102;-85
2021/08/05 07:00:15;;;;;;;11.60;10.43;;;18.50;99.90;;;;;;4938737;29;20030;-79
2021/08/05 07:02:40;;;;;;;13.80;12.40;;;18.50;99.90;;;;;;4939824;29;20046;-82
2021/08/05 07:05:09;;;;;;;12.10;10.95;;;18.60;99.90;;;;;;4939751;29;20019;-76
2021/08/05 07:07:35;;;;;;;13.20;11.90;;;18.70;99.90;;;;;;4938740;29;20105;-76
2021/08/05 07:10:02;;;;;;;11.68;10.70;;;18.70;99.90;;;;;;4939512;29;20035;-83
2021/08/05 07:12:28;;;;;;;12.02;10.65;;;18.80;99.90;;;;;;4956449;29;20051;-74
2021/08/05 07:14:53;;;;;;;12.25;11.05;;;18.80;99.90;;;;;;4955028;29;20114;-76
2021/08/05 07:17:19;;;;;;;12.65;11.45;;;18.90;99.90;;;;;;4955670;28;20106;-80
2021/08/05 07:19:45;;;;;;;12.10;10.88;;;19.00;99.90;;;;;;4955540;29;20053;-80
2021/08/05 07:22:10;;;;;;;11.88;10.88;;;19.00;99.90;;;;;;4955980;29;20103;-75
2021/08/05 07:24:36;;;;;;;12.40;11.20;;;19.10;99.90;;;;;;4955693;28;20031;-86
2021/08/05 07:27:03;;;;;;;11.98;10.98;;;19.10;99.90;;;;;;4939343;29;20027;-77
2021/08/05 07:29:29;;;;;;;11.75;10.60;;;19.20;99.90;;;;;;4937871;29;20037;-88
2021/08/05 07:31:56;;;;;;;12.68;11.57;;;19.30;99.90;;;;;;4939184;29;20027;-74
2021/08/05 07:34:22;;;;;;;12.18;11.07;;;19.40;99.90;;;;;;4938342;29;20028;-77
2021/08/05 07:36:47;;;;;;;13.10;11.85;;;19.50;99.90;;;;;;4954732;29;20115;-77
2021/08/05 07:39:13;;;;;;;11.98;10.77;;;19.60;99.90;;;;;;4955728;29;20111;-82
2021/08/05 07:41:40;;;;;;;12.27;11.23;;;19.70;99.90;;;;;;4938492;29;20030;-76
2021/08/05 07:44:07;;;;;;;12.07;10.90;;;19.80;99.90;;;;;;4955741;29;20077;-79
2021/08/05 07:46:34;;;;;;;12.38;11.18;;;19.90;99.90;;;;;;4955845;29;20038;-81
2021/08/05 07:48:59;;;;;;;12.43;11.15;;;20.00;99.90;;;;;;4955712;29;20039;-79
2021/08/05 07:51:26;;;;;;;15.27;12.65;;;20.10;99.90;;;;;;4955554;29;20046;-78
2021/08/05 07:53:52;;;;;;;14.25;12.95;;;20.20;99.90;;;;;;4939001;29;20046;-77
2021/08/05 07:56:20;;;;;;;14.35;12.85;;;20.40;99.90;;;;;;4954945;29;20460;-76
2021/08/05 07:58:46;;;;;;;14.93;13.52;;;20.50;99.90;;;;;;4953823;28;20086;-75
2021/08/05 08:01:12;;;;;;;13.93;12.73;;;20.60;99.90;;;;;;4937632;29;20047;-79
2021/08/05 08:03:38;;;;;;;13.98;12.55;;;20.80;99.90;;;;;;4953608;29;20113;-77
2021/08/05 08:06:03;;;;;;;15.60;14.13;;;20.90;99.90;;;;;;4938844;29;20140;-82
2021/08/05 08:08:29;;;;;;;15.80;14.40;;;21.00;99.90;;;;;;4954230;28;20035;-77
2021/08/05 08:10:54;;;;;;;15.60;14.18;;;21.10;99.90;;;;;;4953851;28;20027;-76
2021/08/05 08:13:20;;;;;;;18.85;17.02;;;21.20;99.90;;;;;;4955185;29;20038;-75
2021/08/05 08:15:46;;;;;;;16.73;15.13;;;21.30;99.90;;;;;;4954402;28;20027;-83
2021/08/05 08:18:12;;;;;;;18.33;16.63;;;21.30;99.90;;;;;;4953518;28;20023;-84
2021/08/05 08:20:38;;;;;;;16.48;14.88;;;21.30;99.90;;;;;;4955277;29;20439;-77
2021/08/05 08:23:04;;;;;;;18.25;15.13;;;21.30;99.90;;;;;;4955559;29;20031;-74
2021/08/05 08:25:29;;;;;;;17.38;15.77;;;21.20;99.90;;;;;;4953338;28;20389;-76
2021/08/05 08:27:55;;;;;;;19.40;15.57;;;21.30;99.90;;;;;;4954084;29;20071;-76
2021/08/05 08:30:21;;;;;;;15.55;14.05;;;21.40;99.90;;;;;;4955021;29;20125;-80
2021/08/05 08:32:47;;;;;;;15.68;14.10;;;21.50;99.90;;;;;;4954892;29;20027;-75
2021/08/05 08:35:13;;;;;;;16.33;14.80;;;21.70;99.90;;;;;;4955136;29;20031;-75
2021/08/05 08:37:39;;;;;;;17.38;14.88;;;21.70;99.90;;;;;;4954674;29;20023;-77
2021/08/05 08:40:06;;;;;;;16.48;14.98;;;21.70;99.90;;;;;;4955253;29;20036;-79
2021/08/05 08:42:32;;;;;;;18.08;16.38;;;21.70;99.90;;;;;;4955130;29;20038;-82
2021/08/05 08:44:58;;;;;;;18.02;16.15;;;21.70;99.90;;;;;;4937653;29;20098;-85
2021/08/05 08:47:24;;;;;;;23.92;17.30;;;21.60;99.90;;;;;;4954725;29;20484;-79
2021/08/05 08:49:50;;;;;;;22.20;19.55;;;21.80;99.90;;;;;;4955127;29;20032;-82
2021/08/05 08:52:19;;;;;;;54.88;28.33;;;22.00;99.90;;;;;;4953262;29;20384;-74
2021/08/05 08:54:46;;;;;;;24.52;21.42;;;22.20;99.90;;;;;;4938050;29;20499;-79
2021/08/05 08:57:16;;;;;;;26.08;21.55;;;22.40;99.90;;;;;;4937689;29;20024;-77
2021/08/05 08:59:44;;;;;;;20.67;18.23;;;22.60;99.90;;;;;;4937053;29;20019;-78
2021/08/05 09:02:12;;;;;;;20.92;18.77;;;22.60;99.90;;;;;;4954779;29;20047;-75
2021/08/05 09:04:38;;;;;;;20.45;18.02;;;22.70;99.90;;;;;;4955260;29;20027;-79
2021/08/05 09:07:04;;;;;;;18.45;16.75;;;22.80;99.90;;;;;;4954329;29;20027;-84
2021/08/05 09:09:29;;;;;;;17.58;15.88;;;22.90;99.90;;;;;;4937638;29;20031;-83
2021/08/05 09:11:55;;;;;;;18.05;16.25;;;22.90;99.90;;;;;;4958914;29;20427;-81
2021/08/05 09:14:39;;;;;;;18.17;16.52;;;22.80;99.90;;;;;;4957857;29;20023;-77
2021/08/05 09:17:23;;;;;;;15.32;13.82;;;22.70;99.90;;;;;;4957487;29;20139;-74
2021/08/05 09:19:51;;;;;;;17.67;14.35;;;22.60;99.90;;;;;;4957896;29;20105;-74
2021/08/05 09:22:41;;;;;;;16.05;14.27;;;22.50;99.90;;;;;;4957172;29;20353;-75
2021/08/05 09:25:30;;;;;;;14.10;12.60;;;22.50;99.90;;;;;;4941204;29;20023;-76
2021/08/05 09:28:16;;;;;;;14.85;13.45;;;22.40;99.90;;;;;;4957966;29;20027;-74
2021/08/05 09:30:44;;;;;;;14.82;13.32;;;22.40;99.90;;;;;;4958319;29;20046;-75
2021/08/05 09:33:14;;;;;;;17.08;14.55;;;22.30;99.90;;;;;;4958456;29;20078;-81
2021/08/05 09:35:42;;;;;;;16.83;15.27;;;22.20;99.90;;;;;;4940597;29;20019;-75
2021/08/05 09:38:33;;;;;;;16.17;14.68;;;22.10;99.90;;;;;;4958509;29;20019;-74
2021/08/05 09:41:05;;;;;;;18.08;16.10;;;22.00;99.90;;;;;;4957981;29;20081;-79
2021/08/05 09:43:31;;;;;;;18.05;16.30;;;21.80;99.90;;;;;;4957852;29;20038;-83
2021/08/05 09:45:57;;;;;;;17.52;16.00;;;21.80;99.90;;;;;;4941037;29;20027;-74
2021/08/05 09:48:43;;;;;;;15.75;14.35;;;21.70;99.90;;;;;;4939840;29;20383;-75
2021/08/05 09:51:19;;;;;;;15.20;13.43;;;21.70;99.90;;;;;;4958125;29;20132;-76
2021/08/05 09:54:04;;;;;;;15.30;13.80;;;21.70;99.90;;;;;;4958592;29;20038;-76
2021/08/05 09:56:32;;;;;;;16.23;14.63;;;21.80;99.90;;;;;;4939852;29;20030;-75
2021/08/05 09:59:08;;;;;;;15.27;13.88;;;21.90;99.90;;;;;;4941051;29;20062;-76
2021/08/05 10:01:34;;;;;;;14.60;13.20;;;22.00;99.90;;;;;;4957601;29;20047;-81
2021/08/05 10:04:27;;;;;;;13.40;12.20;;;22.00;99.90;;;;;;4939864;29;20058;-79
2021/08/05 10:06:59;;;;;;;13.68;12.38;;;22.00;99.90;;;;;;4958018;29;20038;-74
2021/08/05 10:09:25;;;;;;;15.70;14.20;;;22.00;99.90;;;;;;4956637;29;20074;-74
2021/08/05 10:11:50;;;;;;;15.07;13.57;;;22.00;99.90;;;;;;4957702;29;20062;-76
2021/08/05 10:14:23;;;;;;;16.15;14.60;;;22.20;99.90;;;;;;4940623;29;20027;-75
2021/08/05 10:16:51;;;;;;;13.77;12.15;;;22.20;99.90;;;;;;4957075;29;20047;-74
2021/08/05 10:19:19;;;;;;;13.32;11.93;;;22.20;99.90;;;;;;4957412;29;20023;-79
2021/08/05 10:21:47;;;;;;;13.02;11.80;;;22.30;99.90;;;;;;4956396;28;20078;-77
2021/08/05 10:24:15;;;;;;;13.40;12.10;;;22.30;99.90;;;;;;4956636;29;20110;-74
2021/08/05 10:26:41;;;;;;;14.90;11.70;;;22.40;99.90;;;;;;4940518;29;20499;-81
2021/08/05 10:29:07;;;;;;;12.88;10.88;;;22.50;99.90;;;;;;4957385;29;20019;-77
2021/08/05 10:31:36;;;;;;;10.70;9.70;;;22.60;99.90;;;;;;4956455;29;20054;-74
2021/08/05 10:34:02;;;;;;;13.18;11.57;;;22.70;99.90;;;;;;4940285;29;20027;-74
2021/08/05 10:36:27;;;;;;;11.82;10.73;;;22.90;99.90;;;;;;4956936;29;20024;-77
2021/08/05 10:38:53;;;;;;;10.15;9.15;;;22.90;99.90;;;;;;4956712;29;20083;-75
2021/08/05 10:41:19;;;;;;;14.27;13.00;;;23.00;99.90;;;;;;4940124;29;20035;-75
2021/08/05 10:43:45;;;;;;;12.45;11.25;;;23.10;99.40;;;;;;4939934;29;20495;-75
2021/08/05 10:46:11;;;;;;;10.32;9.18;;;23.10;99.30;;;;;;4955339;29;20497;-75
2021/08/05 10:48:38;;;;;;;16.33;10.85;;;23.10;99.70;;;;;;4939629;29;20034;-74
2021/08/05 10:51:04;;;;;;;11.63;10.45;;;23.10;99.90;;;;;;4957034;29;20023;-78
2021/08/05 10:53:32;;;;;;;12.63;11.50;;;23.20;99.90;;;;;;4939252;29;20038;-79
2021/08/05 10:56:21;;;;;;;11.80;10.70;;;23.10;99.20;;;;;;4955929;29;20034;-76
2021/08/05 10:59:08;;;;;;;13.27;11.98;;;23.20;99.90;;;;;;4956924;29;20053;-75
2021/08/05 11:01:54;;;;;;;11.00;10.00;;;23.30;99.20;;;;;;4956079;29;20035;-74
2021/08/05 11:04:34;;;;;;;12.60;11.43;;;23.30;98.70;;;;;;4956737;29;20543;-75
2021/08/05 11:07:26;;;;;;;13.35;12.20;;;23.40;98.50;;;;;;4955119;28;20034;-74
2021/08/05 11:10:15;;;;;;;11.77;10.68;;;23.40;98.00;;;;;;4938970;29;20113;-77
2021/08/05 11:12:46;;;;;;;12.45;11.25;;;23.50;97.90;;;;;;4954708;29;20082;-74
2021/08/05 11:15:29;;;;;;;9.27;8.45;;;23.50;97.30;;;;;;4938871;29;20037;-82
2021/08/05 11:18:10;;;;;;;7.60;6.80;;;23.60;97.70;;;;;;4949069;28;20031;-73
2021/08/05 11:20:50;;;;;;;9.70;8.80;;;23.70;97.70;;;;;;4955929;29;20391;-82
2021/08/05 11:23:25;;;;;;;10.82;9.82;;;23.80;97.20;;;;;;4956538;29;20476;-83
2021/08/05 11:25:54;;;;;;;12.30;11.20;;;23.80;96.70;;;;;;4956757;29;20070;-77
2021/08/05 11:28:29;;;;;;;12.00;10.85;;;23.90;95.90;;;;;;4955673;29;20023;-75
2021/08/05 11:31:02;;;;;;;12.75;10.20;;;24.00;95.70;;;;;;4946954;28;20039;-78
2021/08/05 11:33:36;;;;;;;11.63;10.52;;;24.00;95.90;;;;;;4948906;28;20463;-74
2021/08/05 11:36:15;;;;;;;15.80;14.18;;;24.10;95.90;;;;;;4956077;29;20027;-74
2021/08/05 11:38:59;;;;;;;13.52;11.93;;;24.30;95.50;;;;;;4970182;28;20514;-76
2021/08/05 11:41:43;;;;;;;13.43;10.55;;;24.40;95.40;;;;;;4954673;28;20391;-75
2021/08/05 11:44:27;;;;;;;11.32;9.20;;;24.50;95.00;;;;;;4929941;28;20026;-76
2021/08/05 11:47:09;;;;;;;12.30;9.82;;;24.60;95.30;;;;;;4939941;29;20062;-73
2021/08/05 11:49:36;;;;;;;10.52;9.65;;;24.70;94.60;;;;;;4935619;29;20089;-73
2021/08/05 11:52:17;;;;;;;11.43;10.23;;;24.70;94.70;;;;;;4949775;28;20488;-75
2021/08/05 11:54:51;;;;;;;10.98;9.82;;;24.80;94.70;;;;;;4962499;28;20030;-74
2021/08/05 11:57:19;;;;;;;12.05;10.85;;;24.80;95.00;;;;;;4956981;28;20026;-73
2021/08/05 11:59:45;;;;;;;10.50;9.57;;;25.10;94.60;;;;;;4940194;29;20033;-74
2021/08/05 12:02:15;;;;;;;10.27;9.43;;;25.40;94.10;;;;;;4953660;28;20419;-73
2021/08/05 12:04:42;;;;;;;10.77;8.80;;;25.70;93.50;;;;;;4954687;29;20073;-76
2021/08/05 12:07:22;;;;;;;9.18;8.27;;;25.90;93.00;;;;;;4956829;28;20042;-73
2021/08/05 12:10:04;;;;;;;8.75;7.97;;;26.00;92.70;;;;;;4952717;28;20038;-75
2021/08/05 12:12:43;;;;;;;10.18;9.18;;;26.10;92.80;;;;;;4942571;29;20085;-74
2021/08/05 12:15:11;;;;;;;12.30;11.10;;;26.00;92.40;;;;;;4953939;29;20059;-75
2021/08/05 12:17:49;;;;;;;11.88;10.82;;;26.00;91.00;;;;;;4969610;28;20060;-79
2021/08/05 12:20:27;;;;;;;16.15;14.55;;;26.00;90.50;;;;;;4974153;28;20023;-75
2021/08/05 12:22:55;;;;;;;14.52;13.23;;;26.00;91.40;;;;;;4951063;29;20028;-73
2021/08/05 12:25:35;;;;;;;13.10;11.90;;;26.20;92.20;;;;;;4954839;29;20023;-73
2021/08/05 12:28:11;;;;;;;12.38;11.18;;;26.30;92.30;;;;;;4939236;28;20026;-76
2021/08/05 12:30:52;;;;;;;15.38;12.30;;;26.40;92.60;;;;;;4956060;28;20043;-74
2021/08/05 12:33:20;;;;;;;12.90;11.77;;;26.20;92.30;;;;;;4939783;28;20023;-74
2021/08/05 12:36:04;;;;;;;13.27;12.07;;;26.00;93.50;;;;;;4953789;29;20445;-77
2021/08/05 12:38:31;;;;;;;13.57;12.18;;;25.70;94.20;;;;;;4948774;29;20544;-75
2021/08/05 12:40:58;;;;;;;14.82;13.35;;;25.40;94.90;;;;;;4958067;28;20028;-77
2021/08/05 12:43:30;;;;;;;15.23;13.88;;;25.20;95.80;;;;;;4942972;28;20024;-74